createdAt,value
2019-05-25T00:00:27.331Z,7.67
2019-05-25T00:03:03.425Z,8.63
2019-05-25T00:05:39.640Z,7.20
2019-05-25T00:08:15.115Z,5.83
2019-05-25T00:10:50.168Z,10.30
2019-05-25T00:13:31.237Z,14.50
2019-05-25T00:16:10.838Z,13.83
2019-05-25T00:18:43.662Z,12.43
2019-05-25T00:21:19.936Z,22.53
2019-05-25T00:24:13.367Z,13.10
2019-05-25T00:26:54.757Z,13.23
2019-05-25T00:29:32.412Z,10.57
2019-05-25T00:32:11.176Z,31.40
2019-05-25T00:34:47.263Z,56.17
2019-05-25T00:37:23.708Z,14.63
2019-05-25T00:40:00.470Z,15.70
2019-05-25T00:42:37.252Z,17.20
2019-05-25T00:45:12.136Z,16.70
2019-05-25T00:47:47.298Z,16.13
2019-05-25T00:50:22.358Z,13.67
2019-05-25T00:52:57.490Z,16.67
2019-05-25T00:55:32.463Z,23.57
2019-05-25T00:58:27.894Z,12.33
2019-05-25T01:01:06.401Z,15.23
2019-05-25T01:03:45.288Z,13.13
2019-05-25T01:06:20.363Z,11.40
2019-05-25T01:08:56.182Z,20.23
2019-05-25T01:11:31.431Z,19.87
2019-05-25T01:14:07.765Z,15.27
2019-05-25T01:16:42.893Z,23.47
2019-05-25T01:19:18.568Z,14.40
2019-05-25T01:21:54.119Z,25.27
2019-05-25T01:24:43.173Z,10.50
2019-05-25T01:27:05.373Z,12.40
2019-05-25T01:29:40.615Z,14.07
2019-05-25T01:32:15.424Z,11.07
2019-05-25T01:34:56.278Z,13.07
2019-05-25T01:37:31.261Z,16.27
2019-05-25T01:40:06.572Z,28.43
2019-05-25T01:42:41.401Z,16.67
2019-05-25T01:45:38.340Z,14.37
2019-05-25T01:48:13.288Z,18.33
2019-05-25T01:50:48.288Z,17.93
2019-05-25T01:53:23.083Z,19.93
2019-05-25T01:55:57.858Z,14.27
2019-05-25T01:58:32.818Z,27.03
2019-05-25T02:01:08.043Z,21.80
2019-05-25T02:03:42.916Z,9.87
2019-05-25T02:06:18.807Z,13.17
2019-05-25T02:08:53.665Z,13.40
2019-05-25T02:11:28.643Z,14.03
2019-05-25T02:14:03.471Z,11.20
2019-05-25T02:16:38.699Z,17.40
2019-05-25T02:19:13.840Z,8.50
2019-05-25T02:21:49.193Z,26.60
2019-05-25T02:24:24.110Z,8.57
2019-05-25T02:26:59.037Z,7.73
2019-05-25T02:29:33.919Z,10.00
2019-05-25T02:32:09.568Z,10.10
2019-05-25T02:34:44.542Z,14.27
2019-05-25T02:37:20.127Z,9.37
2019-05-25T02:39:54.918Z,5.87
2019-05-25T02:42:30.163Z,5.13
2019-05-25T02:45:05.309Z,10.77
2019-05-25T02:47:41.122Z,9.27
2019-05-25T02:50:16.410Z,7.17
2019-05-25T02:52:55.399Z,5.23
2019-05-25T02:55:34.217Z,3.70
2019-05-25T02:58:06.762Z,5.80
2019-05-25T03:00:41.666Z,4.07
2019-05-25T03:03:16.909Z,4.80
2019-05-25T03:05:53.162Z,7.00
2019-05-25T03:08:29.077Z,12.50
2019-05-25T03:11:07.918Z,4.40
2019-05-25T03:13:44.938Z,5.20
2019-05-25T03:16:20.236Z,6.17
2019-05-25T03:18:55.304Z,7.77
2019-05-25T03:21:30.131Z,10.57
2019-05-25T03:24:05.170Z,8.53
2019-05-25T03:26:39.925Z,5.07
2019-05-25T03:29:15.525Z,6.47
2019-05-25T03:31:50.170Z,4.50
2019-05-25T03:34:25.585Z,6.70
2019-05-25T03:37:00.457Z,8.23
2019-05-25T03:39:36.382Z,10.00
2019-05-25T03:42:11.311Z,7.93
2019-05-25T03:44:47.389Z,12.27
2019-05-25T03:47:23.189Z,5.30
2019-05-25T03:49:58.513Z,4.10
2019-05-25T03:52:33.070Z,4.10
2019-05-25T03:55:08.694Z,4.37
2019-05-25T03:57:43.305Z,2.97
2019-05-25T04:00:18.168Z,2.83
2019-05-25T04:02:53.801Z,4.30
2019-05-25T04:05:29.277Z,6.03
2019-05-25T04:08:04.218Z,4.50
2019-05-25T04:10:41.288Z,3.93
2019-05-25T04:13:16.049Z,5.20
2019-05-25T04:15:51.255Z,15.70
2019-05-25T04:18:26.972Z,3.00
2019-05-25T04:21:05.615Z,3.80
2019-05-25T04:23:41.655Z,10.87
2019-05-25T04:26:22.612Z,5.53
2019-05-25T04:28:55.288Z,6.00
2019-05-25T04:31:30.800Z,10.30
2019-05-25T04:34:05.769Z,6.20
2019-05-25T04:37:00.400Z,4.57
2019-05-25T04:39:35.354Z,5.77
2019-05-25T04:42:11.273Z,7.23
2019-05-25T04:44:47.457Z,7.73
2019-05-25T04:47:26.992Z,5.70
2019-05-25T04:49:58.670Z,6.43
2019-05-25T04:52:33.793Z,4.87
2019-05-25T04:55:10.165Z,5.63
2019-05-25T04:57:45.336Z,9.60
2019-05-25T05:00:20.476Z,4.77
2019-05-25T05:02:56.073Z,3.63
2019-05-25T05:05:30.917Z,5.87
2019-05-25T05:08:05.952Z,6.80
2019-05-25T05:10:41.317Z,5.87
2019-05-25T05:13:16.363Z,9.20
2019-05-25T05:15:51.272Z,9.83
2019-05-25T05:18:26.800Z,6.27
2019-05-25T05:21:01.893Z,6.93
2019-05-25T05:23:37.098Z,11.27
2019-05-25T05:26:12.044Z,7.23
2019-05-25T05:28:49.133Z,6.93
2019-05-25T05:31:23.875Z,12.00
2019-05-25T05:33:59.288Z,8.50
2019-05-25T05:36:35.468Z,8.17
2019-05-25T05:39:12.358Z,7.20
2019-05-25T05:41:48.841Z,6.97
2019-05-25T05:44:24.489Z,5.37
2019-05-25T05:47:10.402Z,9.20
2019-05-25T05:49:41.380Z,8.93
2019-05-25T05:52:18.101Z,9.73
2019-05-25T05:54:54.896Z,6.63
2019-05-25T05:57:30.091Z,9.40
2019-05-25T06:00:06.074Z,7.27
2019-05-25T06:02:41.908Z,8.37
2019-05-25T06:05:17.395Z,7.80
2019-05-25T06:07:52.483Z,7.73
2019-05-25T06:10:28.399Z,8.23
2019-05-25T06:13:03.459Z,18.60
2019-05-25T06:15:39.268Z,7.30
2019-05-25T06:18:14.602Z,8.50
2019-05-25T06:20:49.920Z,9.63
2019-05-25T06:23:25.160Z,10.33
2019-05-25T06:26:00.432Z,13.93
2019-05-25T06:28:35.769Z,8.97
2019-05-25T06:31:12.452Z,12.73
2019-05-25T06:33:47.458Z,12.03
2019-05-25T06:36:22.954Z,9.87
2019-05-25T06:38:57.950Z,9.63
2019-05-25T06:41:33.731Z,6.27
2019-05-25T06:44:09.037Z,13.47
2019-05-25T06:46:44.436Z,13.00
2019-05-25T06:49:20.470Z,19.33
2019-05-25T06:51:56.072Z,15.33
2019-05-25T06:54:31.066Z,12.23
2019-05-25T06:57:25.134Z,13.97
2019-05-25T07:00:00.576Z,11.87
2019-05-25T07:02:36.739Z,11.10
2019-05-25T07:05:12.976Z,7.67
2019-05-25T07:07:48.151Z,6.00
2019-05-25T07:10:23.253Z,10.73
2019-05-25T07:12:59.260Z,16.47
2019-05-25T07:15:34.241Z,10.27
2019-05-25T07:18:09.581Z,11.40
2019-05-25T07:20:57.288Z,16.70
2019-05-25T07:23:32.201Z,16.90
2019-05-25T07:26:07.093Z,10.67
2019-05-25T07:28:43.686Z,12.93
2019-05-25T07:31:19.234Z,14.20
2019-05-25T07:33:54.449Z,12.63
2019-05-25T07:36:29.354Z,14.63
2019-05-25T07:39:04.337Z,9.07
2019-05-25T07:41:43.483Z,11.63
2019-05-25T07:44:19.715Z,15.77
2019-05-25T07:46:54.763Z,16.73
2019-05-25T07:49:31.639Z,17.27
2019-05-25T07:52:06.728Z,14.03
2019-05-25T07:54:46.167Z,15.87
2019-05-25T07:57:37.854Z,15.83
2019-05-25T08:00:19.967Z,11.83
2019-05-25T08:02:57.952Z,14.10
2019-05-25T08:05:38.669Z,14.47
2019-05-25T08:08:18.984Z,15.43
2019-05-25T08:11:00.133Z,13.47
2019-05-25T08:13:36.159Z,18.23
2019-05-25T08:16:18.611Z,18.33
2019-05-25T08:18:53.682Z,18.57
2019-05-25T08:21:51.926Z,15.67
2019-05-25T08:24:28.407Z,20.83
2019-05-25T08:27:05.810Z,19.80
2019-05-25T08:29:44.080Z,20.40
2019-05-25T08:32:29.516Z,21.00
2019-05-25T08:35:12.844Z,22.03
2019-05-25T08:37:49.401Z,20.70
2019-05-25T08:40:29.284Z,16.03
2019-05-25T08:43:04.035Z,19.90
2019-05-25T08:45:38.853Z,20.90
2019-05-25T08:48:17.947Z,22.20
2019-05-25T08:50:54.232Z,28.50
2019-05-25T08:53:40.460Z,24.57
2019-05-25T08:56:06.210Z,26.93
2019-05-25T08:58:48.360Z,21.10
2019-05-25T09:01:20.279Z,23.90
2019-05-25T09:03:55.947Z,19.10
2019-05-25T09:06:30.811Z,15.63
2019-05-25T09:09:06.344Z,20.37
2019-05-25T09:11:41.400Z,22.33
2019-05-25T09:14:16.547Z,23.03
2019-05-25T09:16:51.843Z,33.07
2019-05-25T09:19:30.153Z,19.40
2019-05-25T09:22:05.260Z,24.23
2019-05-25T09:24:40.735Z,21.47
2019-05-25T09:30:45.520Z,26.00
2019-05-25T09:33:56.230Z,27.93
2019-05-25T09:36:30.226Z,28.17
2019-05-25T09:39:06.965Z,29.23
2019-05-25T09:41:48.091Z,28.07
2019-05-25T09:44:24.502Z,20.10
2019-05-25T09:47:09.406Z,17.70
2019-05-25T09:49:50.156Z,16.77
2019-05-25T09:52:26.738Z,22.03
2019-05-25T09:55:01.793Z,25.50
2019-05-25T09:57:41.258Z,25.73
2019-05-25T10:00:17.715Z,21.57
2019-05-25T10:02:53.392Z,18.73
2019-05-25T10:05:28.672Z,16.20
2019-05-25T10:08:04.286Z,23.27
2019-05-25T10:10:39.160Z,24.63
2019-05-25T10:13:14.432Z,18.13
2019-05-25T10:15:49.447Z,19.70
2019-05-25T10:18:31.827Z,18.57
2019-05-25T10:21:06.596Z,20.67
2019-05-25T10:23:41.934Z,20.20
2019-05-25T10:26:18.159Z,23.90
2019-05-25T10:28:53.665Z,18.47
2019-05-25T10:31:28.688Z,14.53
2019-05-25T10:34:04.404Z,13.80
2019-05-25T10:36:39.534Z,14.40
2019-05-25T10:39:17.789Z,16.73
2019-05-25T10:41:54.273Z,14.03
2019-05-25T10:44:31.360Z,13.23
2019-05-25T10:47:08.069Z,12.57
2019-05-25T10:49:45.414Z,16.07
2019-05-25T10:52:21.939Z,13.57
2019-05-25T10:54:59.384Z,15.37
2019-05-25T10:57:37.329Z,17.27
2019-05-25T11:00:16.131Z,15.53
2019-05-25T11:02:58.866Z,15.90
2019-05-25T11:05:39.564Z,14.80
2019-05-25T11:08:17.705Z,15.60
2019-05-25T11:11:07.038Z,10.80
2019-05-25T11:13:41.920Z,10.67
2019-05-25T11:16:21.531Z,14.20
2019-05-25T11:18:59.564Z,11.23
2019-05-25T11:21:37.070Z,8.63
2019-05-25T11:27:12.972Z,14.33
2019-05-25T11:29:49.633Z,14.80
2019-05-25T11:32:27.253Z,10.47
2019-05-25T11:35:04.779Z,14.37
2019-05-25T11:37:42.708Z,18.23
2019-05-25T11:40:21.724Z,18.30
2019-05-25T11:43:05.811Z,17.83
2019-05-25T11:45:45.353Z,12.43
2019-05-25T11:48:21.783Z,12.47
2019-05-25T11:51:01.552Z,13.60
2019-05-25T11:53:39.600Z,13.87
2019-05-25T11:56:16.123Z,16.20
2019-05-25T11:58:53.015Z,13.17
2019-05-25T12:01:34.317Z,22.50
2019-05-25T12:04:10.751Z,24.97
2019-05-25T12:06:45.978Z,25.00
2019-05-25T12:09:21.555Z,19.33
2019-05-25T12:11:58.201Z,22.07
2019-05-25T12:14:33.658Z,19.03
2019-05-25T12:17:08.878Z,17.47
2019-05-25T12:19:44.366Z,18.23
2019-05-25T12:22:22.648Z,17.53
2019-05-25T12:25:11.170Z,17.20
2019-05-25T12:27:49.154Z,17.07
2019-05-25T12:30:39.744Z,20.20
2019-05-25T12:33:04.946Z,15.87
2019-05-25T12:35:51.661Z,19.43
2019-05-25T12:38:35.815Z,16.40
2019-05-25T12:41:11.358Z,13.20
2019-05-25T12:43:50.453Z,16.43
2019-05-25T12:46:26.555Z,13.87
2019-05-25T12:49:02.818Z,15.30
2019-05-25T12:51:41.790Z,13.87
2019-05-25T12:54:20.920Z,14.50
2019-05-25T12:56:57.215Z,10.73
2019-05-25T12:59:32.239Z,15.00
2019-05-25T13:02:10.388Z,13.03
2019-05-25T13:04:52.487Z,13.57
2019-05-25T13:07:29.558Z,12.03
2019-05-25T13:10:05.746Z,11.27
2019-05-25T13:12:43.950Z,10.87
2019-05-25T13:15:19.048Z,11.43
2019-05-25T13:17:55.604Z,8.40
2019-05-25T13:20:30.998Z,11.83
2019-05-25T13:23:06.759Z,11.97
2019-05-25T13:25:42.733Z,8.73
2019-05-25T13:28:18.095Z,11.23
2019-05-25T13:30:53.838Z,10.30
2019-05-25T13:33:28.737Z,10.20
2019-05-25T13:36:03.519Z,9.07
2019-05-25T13:38:38.754Z,6.77
2019-05-25T13:41:14.759Z,9.17
2019-05-25T13:43:50.218Z,12.53
2019-05-25T13:46:25.062Z,9.80
2019-05-25T13:49:00.515Z,10.77
2019-05-25T13:51:51.867Z,10.43
2019-05-25T13:54:27.199Z,8.97
2019-05-25T13:57:02.269Z,7.90
2019-05-25T13:59:38.128Z,9.37
2019-05-25T14:02:13.082Z,7.90
2019-05-25T14:04:50.535Z,6.27
2019-05-25T14:07:25.227Z,6.80
2019-05-25T14:10:00.490Z,7.13
2019-05-25T14:12:35.313Z,7.90
2019-05-25T14:15:12.082Z,5.13
2019-05-25T14:17:47.137Z,7.10
2019-05-25T14:20:23.258Z,6.13
2019-05-25T14:22:58.094Z,7.63
2019-05-25T14:25:33.211Z,6.93
2019-05-25T14:28:08.382Z,6.70
2019-05-25T14:30:44.542Z,7.90
2019-05-25T14:33:19.488Z,7.30
2019-05-25T14:35:54.781Z,6.13
2019-05-25T14:38:29.759Z,8.20
2019-05-25T14:41:04.808Z,3.83
2019-05-25T14:43:40.783Z,4.10
2019-05-25T14:46:27.478Z,5.97
2019-05-25T14:48:51.859Z,4.50
2019-05-25T14:51:26.938Z,2.17
2019-05-25T14:54:21.261Z,2.53
2019-05-25T14:56:56.306Z,3.57
2019-05-25T14:59:31.042Z,2.37
2019-05-25T15:02:07.056Z,5.23
2019-05-25T15:04:42.038Z,3.90
2019-05-25T15:07:17.216Z,3.07
2019-05-25T15:09:51.878Z,4.23
2019-05-25T15:12:27.745Z,5.93
2019-05-25T15:15:02.965Z,5.97
2019-05-25T15:17:37.870Z,3.07
2019-05-25T15:20:13.042Z,4.03
2019-05-25T15:22:48.478Z,5.67
2019-05-25T15:25:23.415Z,3.57
2019-05-25T15:27:58.275Z,3.83
2019-05-25T15:30:33.237Z,3.23
2019-05-25T15:33:09.362Z,2.83
2019-05-25T15:35:44.325Z,1.97
2019-05-25T15:38:21.045Z,2.80
2019-05-25T15:40:55.925Z,2.20
2019-05-25T15:43:31.936Z,3.87
2019-05-25T15:46:07.420Z,3.77
2019-05-25T15:48:42.593Z,8.10
2019-05-25T15:51:17.479Z,2.47
2019-05-25T15:53:52.682Z,1.73
2019-05-25T15:56:27.841Z,3.07
2019-05-25T15:59:03.454Z,7.63
2019-05-25T16:01:38.264Z,2.27
2019-05-25T16:04:13.873Z,2.93
2019-05-25T16:06:48.790Z,4.97
2019-05-25T16:09:24.899Z,2.20
2019-05-25T16:11:59.762Z,2.43
2019-05-25T16:14:34.790Z,1.80
2019-05-25T16:17:09.757Z,3.40
2019-05-25T16:19:44.999Z,1.40
2019-05-25T16:22:19.731Z,2.57
2019-05-25T16:24:55.684Z,1.37
2019-05-25T16:27:30.635Z,7.67
2019-05-25T16:30:05.643Z,1.87
2019-05-25T16:33:09.920Z,4.93
2019-05-25T16:35:17.403Z,2.97
2019-05-25T16:37:52.433Z,2.20
2019-05-25T16:40:28.686Z,1.50
2019-05-25T16:43:03.532Z,5.20
2019-05-25T16:45:39.044Z,3.80
2019-05-25T16:48:14.119Z,2.53
2019-05-25T16:50:49.558Z,3.20
2019-05-25T16:53:24.482Z,1.70
2019-05-25T16:56:00.052Z,2.40
2019-05-25T16:58:35.549Z,1.90
2019-05-25T17:01:11.202Z,2.07
2019-05-25T17:03:46.170Z,2.03
2019-05-25T17:06:22.092Z,3.27
2019-05-25T17:08:56.932Z,3.10
2019-05-25T17:11:31.904Z,2.47
2019-05-25T17:14:06.837Z,1.10
2019-05-25T17:16:41.855Z,4.27
2019-05-25T17:19:16.797Z,4.07
2019-05-25T17:21:52.515Z,2.57
2019-05-25T17:24:27.347Z,2.67
2019-05-25T17:27:02.506Z,3.80
2019-05-25T17:29:37.923Z,1.83
2019-05-25T17:32:13.682Z,3.33
2019-05-25T17:34:48.453Z,3.43
2019-05-25T17:37:24.666Z,1.43
2019-05-25T17:39:59.621Z,1.50
2019-05-25T17:42:34.707Z,2.17
2019-05-25T17:45:10.314Z,2.13
2019-05-25T17:47:45.413Z,5.33
2019-05-25T17:50:20.680Z,2.60
2019-05-25T17:52:56.324Z,2.20
2019-05-25T17:55:31.570Z,1.20
2019-05-25T17:58:06.878Z,3.70
2019-05-25T18:00:47.226Z,4.60
2019-05-25T18:03:22.562Z,2.33
2019-05-25T18:05:57.353Z,2.47
2019-05-25T18:08:33.499Z,2.07
2019-05-25T18:11:08.365Z,1.50
2019-05-25T18:13:43.475Z,3.73
2019-05-25T18:16:21.345Z,2.23
2019-05-25T18:18:56.515Z,2.33
2019-05-25T18:21:32.684Z,2.80
2019-05-25T18:24:08.098Z,2.53
2019-05-25T18:26:43.456Z,3.43
2019-05-25T18:29:18.516Z,2.93
2019-05-25T18:31:53.507Z,1.50
2019-05-25T18:34:34.970Z,1.87
2019-05-25T18:37:10.256Z,3.23
2019-05-25T18:39:46.714Z,0.90
2019-05-25T18:42:21.649Z,4.00
2019-05-25T18:44:57.739Z,3.80
2019-05-25T18:47:33.070Z,1.77
2019-05-25T18:50:12.199Z,1.53
2019-05-25T18:52:47.892Z,0.83
2019-05-25T18:55:23.283Z,5.27
2019-05-25T18:58:00.030Z,1.70
2019-05-25T19:00:36.241Z,1.53
2019-05-25T19:03:11.083Z,2.87
2019-05-25T19:05:46.830Z,1.83
2019-05-25T19:08:24.619Z,1.90
2019-05-25T19:11:00.308Z,2.00
2019-05-25T19:13:53.916Z,2.37
2019-05-25T19:16:29.313Z,3.10
2019-05-25T19:19:04.333Z,4.07
2019-05-25T19:21:40.666Z,1.63
2019-05-25T19:24:15.649Z,2.13
2019-05-25T19:26:52.905Z,2.97
2019-05-25T19:29:28.418Z,2.13
2019-05-25T19:32:03.671Z,3.23
2019-05-25T19:34:38.435Z,2.20
2019-05-25T19:37:19.021Z,1.80
2019-05-25T19:39:50.340Z,2.47
2019-05-25T19:42:26.604Z,1.53
2019-05-25T19:45:01.847Z,1.20
2019-05-25T19:47:38.242Z,1.03
2019-05-25T19:50:13.915Z,1.50
2019-05-25T19:52:48.928Z,2.93
2019-05-25T19:55:23.926Z,2.13
2019-05-25T19:57:58.869Z,1.20
2019-05-25T20:00:33.631Z,1.20
2019-05-25T20:03:09.099Z,2.13
2019-05-25T20:05:43.771Z,2.00
2019-05-25T20:08:19.092Z,4.03
2019-05-25T20:10:55.749Z,3.80
2019-05-25T20:13:31.152Z,0.73
2019-05-25T20:16:05.863Z,2.80
2019-05-25T20:18:40.994Z,6.37
2019-05-25T20:21:15.978Z,5.47
2019-05-25T20:23:50.981Z,2.60
2019-05-25T20:26:25.825Z,2.27
2019-05-25T20:29:01.193Z,5.33
2019-05-25T20:31:36.097Z,2.20
2019-05-25T20:34:11.148Z,2.33
2019-05-25T20:36:47.721Z,4.40
2019-05-25T20:39:22.999Z,4.83
2019-05-25T20:41:57.773Z,5.10
2019-05-25T20:44:33.902Z,3.23
2019-05-25T20:47:08.865Z,3.60
2019-05-25T20:49:43.957Z,3.83
2019-05-25T20:52:19.036Z,4.80
2019-05-25T20:54:54.168Z,4.00
2019-05-25T20:57:28.840Z,2.27
2019-05-25T21:00:03.837Z,3.30
2019-05-25T21:02:39.778Z,2.77
2019-05-25T21:05:15.412Z,5.23
2019-05-25T21:07:50.777Z,3.03
2019-05-25T21:10:25.964Z,3.83
2019-05-25T21:13:00.771Z,3.90
2019-05-25T21:15:36.960Z,6.10
2019-05-25T21:18:11.858Z,3.90
2019-05-25T21:20:51.025Z,5.20
2019-05-25T21:23:25.944Z,6.33
2019-05-25T21:26:00.935Z,4.00
2019-05-25T21:28:35.773Z,5.43
2019-05-25T21:31:10.754Z,3.90
2019-05-25T21:33:45.563Z,7.10
2019-05-25T21:36:20.939Z,7.47
2019-05-25T21:38:55.855Z,6.63
2019-05-25T21:41:31.071Z,2.93
2019-05-25T21:44:05.905Z,5.17
2019-05-25T21:46:41.702Z,4.10
2019-05-25T21:49:16.502Z,5.23
2019-05-25T21:51:51.528Z,3.53
2019-05-25T21:54:27.974Z,7.00
2019-05-25T21:57:03.616Z,6.30
2019-05-25T21:59:38.466Z,4.63
2019-05-25T22:02:14.117Z,3.63
2019-05-25T22:04:49.158Z,5.70
2019-05-25T22:07:24.343Z,5.70
2019-05-25T22:09:59.140Z,3.67
2019-05-25T22:12:34.898Z,5.77
2019-05-25T22:15:18.188Z,11.20
2019-05-25T22:18:02.901Z,7.73
2019-05-25T22:20:46.154Z,6.33
2019-05-25T22:23:28.328Z,7.97
2019-05-25T22:29:02.475Z,6.40
2019-05-25T22:31:43.014Z,8.43
2019-05-25T22:34:21.814Z,7.40
2019-05-25T22:36:56.776Z,12.20
2019-05-25T22:39:31.978Z,8.80
2019-05-25T22:42:06.895Z,9.97
2019-05-25T22:44:41.976Z,8.43
2019-05-25T22:47:17.618Z,5.47
2019-05-25T22:49:53.888Z,7.40
2019-05-25T22:52:28.756Z,6.40
2019-05-25T22:55:03.883Z,6.87
2019-05-25T22:57:38.836Z,6.33
2019-05-25T23:00:15.593Z,7.10
2019-05-25T23:02:51.004Z,10.77
2019-05-25T23:05:26.324Z,7.90
2019-05-25T23:08:04.867Z,8.50
2019-05-25T23:10:39.529Z,8.07
2019-05-25T23:13:14.573Z,6.53
2019-05-25T23:15:50.083Z,8.13
2019-05-25T23:18:25.876Z,7.80
2019-05-25T23:21:17.404Z,6.23
2019-05-25T23:23:50.130Z,9.00
2019-05-25T23:26:26.680Z,8.40
2019-05-25T23:29:11.131Z,8.77
2019-05-25T23:31:46.060Z,12.37
2019-05-25T23:34:20.846Z,8.73
2019-05-25T23:36:55.823Z,7.07
2019-05-25T23:39:32.490Z,4.70
2019-05-25T23:42:08.408Z,7.00
2019-05-25T23:44:43.766Z,4.90
2019-05-25T23:47:18.533Z,8.23
2019-05-25T23:49:53.697Z,6.43
2019-05-25T23:52:31.104Z,10.57
2019-05-25T23:55:07.528Z,8.43
2019-05-25T23:57:48.145Z,3.87
